sensor_id;sensor_type;location;lat;lon;timestamp;temperature;humidity
32502;DHT22;18952;52.516;13.460;2023-12-22T00:00:47;4.60;63.70
32502;DHT22;18952;52.516;13.460;2023-12-22T00:03:15;4.60;63.40
32502;DHT22;18952;52.516;13.460;2023-12-22T00:05:42;4.60;62.90
32502;DHT22;18952;52.516;13.460;2023-12-22T00:08:10;4.60;63.20
32502;DHT22;18952;52.516;13.460;2023-12-22T00:10:37;4.60;62.80
32502;DHT22;18952;52.516;13.460;2023-12-22T00:13:05;4.50;62.90
32502;DHT22;18952;52.516;13.460;2023-12-22T00:15:35;4.50;62.30
32502;DHT22;18952;52.516;13.460;2023-12-22T00:18:02;4.50;62.20
32502;DHT22;18952;52.516;13.460;2023-12-22T00:20:28;4.40;62.20
32502;DHT22;18952;52.516;13.460;2023-12-22T00:22:55;4.40;62.20
32502;DHT22;18952;52.516;13.460;2023-12-22T00:25:23;4.30;62.10
32502;DHT22;18952;52.516;13.460;2023-12-22T00:27:50;4.40;61.80
32502;DHT22;18952;52.516;13.460;2023-12-22T00:30:17;4.40;61.30
32502;DHT22;18952;52.516;13.460;2023-12-22T00:32:44;4.40;61.20
32502;DHT22;18952;52.516;13.460;2023-12-22T00:35:11;4.30;60.70
32502;DHT22;18952;52.516;13.460;2023-12-22T00:37:38;4.30;60.60
32502;DHT22;18952;52.516;13.460;2023-12-22T00:40:05;4.30;60.80
32502;DHT22;18952;52.516;13.460;2023-12-22T00:42:34;4.30;59.80
32502;DHT22;18952;52.516;13.460;2023-12-22T00:45:01;4.30;60.10
32502;DHT22;18952;52.516;13.460;2023-12-22T00:47:29;4.40;60.00
32502;DHT22;18952;52.516;13.460;2023-12-22T00:49:55;4.40;60.40
32502;DHT22;18952;52.516;13.460;2023-12-22T00:52:23;4.50;60.20
32502;DHT22;18952;52.516;13.460;2023-12-22T00:54:50;4.60;60.20
32502;DHT22;18952;52.516;13.460;2023-12-22T00:57:17;4.50;60.60
32502;DHT22;18952;52.516;13.460;2023-12-22T00:59:45;4.50;61.00
32502;DHT22;18952;52.516;13.460;2023-12-22T01:02:17;4.50;61.50
32502;DHT22;18952;52.516;13.460;2023-12-22T01:04:44;4.40;61.80
32502;DHT22;18952;52.516;13.460;2023-12-22T01:07:12;4.50;62.00
32502;DHT22;18952;52.516;13.460;2023-12-22T01:09:39;4.50;62.30
32502;DHT22;18952;52.516;13.460;2023-12-22T01:12:06;4.50;62.50
32502;DHT22;18952;52.516;13.460;2023-12-22T01:14:35;4.40;62.90
32502;DHT22;18952;52.516;13.460;2023-12-22T01:17:01;4.30;63.60
32502;DHT22;18952;52.516;13.460;2023-12-22T01:19:28;4.30;63.90
32502;DHT22;18952;52.516;13.460;2023-12-22T01:21:55;4.30;64.00
32502;DHT22;18952;52.516;13.460;2023-12-22T01:24:22;4.30;64.50
32502;DHT22;18952;52.516;13.460;2023-12-22T01:26:51;4.30;65.00
32502;DHT22;18952;52.516;13.460;2023-12-22T01:29:19;4.40;65.00
32502;DHT22;18952;52.516;13.460;2023-12-22T01:31:47;4.30;65.60
32502;DHT22;18952;52.516;13.460;2023-12-22T01:34:14;4.30;65.60
32502;DHT22;18952;52.516;13.460;2023-12-22T01:36:41;4.30;65.80
32502;DHT22;18952;52.516;13.460;2023-12-22T01:39:08;4.20;66.80
32502;DHT22;18952;52.516;13.460;2023-12-22T01:41:36;4.20;66.70
32502;DHT22;18952;52.516;13.460;2023-12-22T01:44:03;4.20;66.70
32502;DHT22;18952;52.516;13.460;2023-12-22T01:46:31;4.20;66.70
32502;DHT22;18952;52.516;13.460;2023-12-22T01:48:58;4.10;67.00
32502;DHT22;18952;52.516;13.460;2023-12-22T01:51:32;4.10;67.10
32502;DHT22;18952;52.516;13.460;2023-12-22T01:54:00;4.10;66.90
32502;DHT22;18952;52.516;13.460;2023-12-22T01:56:28;4.10;67.10
32502;DHT22;18952;52.516;13.460;2023-12-22T01:58:58;4.10;67.40
32502;DHT22;18952;52.516;13.460;2023-12-22T02:01:26;4.10;67.40
32502;DHT22;18952;52.516;13.460;2023-12-22T02:03:55;4.20;67.00
32502;DHT22;18952;52.516;13.460;2023-12-22T02:06:24;4.20;67.20
32502;DHT22;18952;52.516;13.460;2023-12-22T02:08:53;4.20;67.10
32502;DHT22;18952;52.516;13.460;2023-12-22T02:11:21;4.10;67.10
32502;DHT22;18952;52.516;13.460;2023-12-22T02:13:48;4.20;67.40
32502;DHT22;18952;52.516;13.460;2023-12-22T02:22:06;4.00;67.60
32502;DHT22;18952;52.516;13.460;2023-12-22T02:24:36;4.00;67.80
32502;DHT22;18952;52.516;13.460;2023-12-22T02:29:54;4.00;67.90
32502;DHT22;18952;52.516;13.460;2023-12-22T02:32:36;4.00;68.20
32502;DHT22;18952;52.516;13.460;2023-12-22T02:35:09;4.00;68.50
32502;DHT22;18952;52.516;13.460;2023-12-22T02:37:39;4.00;68.50
32502;DHT22;18952;52.516;13.460;2023-12-22T02:40:07;3.90;68.70
32502;DHT22;18952;52.516;13.460;2023-12-22T02:42:36;3.80;69.20
32502;DHT22;18952;52.516;13.460;2023-12-22T02:45:05;3.90;69.10
32502;DHT22;18952;52.516;13.460;2023-12-22T02:47:34;3.90;68.90
32502;DHT22;18952;52.516;13.460;2023-12-22T02:50:00;3.90;68.70
32502;DHT22;18952;52.516;13.460;2023-12-22T02:52:29;3.90;68.50
32502;DHT22;18952;52.516;13.460;2023-12-22T02:54:56;3.90;68.40
32502;DHT22;18952;52.516;13.460;2023-12-22T02:57:23;3.80;68.50
32502;DHT22;18952;52.516;13.460;2023-12-22T02:59:50;3.80;68.30
32502;DHT22;18952;52.516;13.460;2023-12-22T03:02:17;3.80;68.90
32502;DHT22;18952;52.516;13.460;2023-12-22T03:04:45;3.90;68.50
32502;DHT22;18952;52.516;13.460;2023-12-22T03:07:13;3.80;68.30
32502;DHT22;18952;52.516;13.460;2023-12-22T03:09:42;3.90;68.20
32502;DHT22;18952;52.516;13.460;2023-12-22T03:12:10;3.70;68.70
32502;DHT22;18952;52.516;13.460;2023-12-22T03:14:38;3.70;68.40
32502;DHT22;18952;52.516;13.460;2023-12-22T03:17:06;3.70;68.90
32502;DHT22;18952;52.516;13.460;2023-12-22T03:19:34;3.70;68.90
32502;DHT22;18952;52.516;13.460;2023-12-22T03:22:01;3.70;68.60
32502;DHT22;18952;52.516;13.460;2023-12-22T03:24:30;3.70;69.00
32502;DHT22;18952;52.516;13.460;2023-12-22T03:26:56;3.70;69.30
32502;DHT22;18952;52.516;13.460;2023-12-22T03:29:23;3.70;69.30
32502;DHT22;18952;52.516;13.460;2023-12-22T03:31:50;3.70;69.40
32502;DHT22;18952;52.516;13.460;2023-12-22T03:34:17;3.70;69.50
32502;DHT22;18952;52.516;13.460;2023-12-22T03:36:45;3.70;69.90
32502;DHT22;18952;52.516;13.460;2023-12-22T03:39:12;3.60;70.00
32502;DHT22;18952;52.516;13.460;2023-12-22T03:41:40;3.60;70.30
32502;DHT22;18952;52.516;13.460;2023-12-22T03:44:08;3.50;70.60
32502;DHT22;18952;52.516;13.460;2023-12-22T03:46:37;3.70;70.30
32502;DHT22;18952;52.516;13.460;2023-12-22T03:49:05;3.70;70.10
32502;DHT22;18952;52.516;13.460;2023-12-22T03:51:32;3.60;70.40
32502;DHT22;18952;52.516;13.460;2023-12-22T03:53:59;3.70;70.10
32502;DHT22;18952;52.516;13.460;2023-12-22T03:56:25;3.60;70.20
32502;DHT22;18952;52.516;13.460;2023-12-22T03:58:53;3.70;70.00
32502;DHT22;18952;52.516;13.460;2023-12-22T04:01:22;3.60;69.90
32502;DHT22;18952;52.516;13.460;2023-12-22T04:03:48;3.70;70.10
32502;DHT22;18952;52.516;13.460;2023-12-22T04:06:17;3.60;69.80
32502;DHT22;18952;52.516;13.460;2023-12-22T04:08:43;3.70;69.80
32502;DHT22;18952;52.516;13.460;2023-12-22T04:11:12;3.70;69.50
32502;DHT22;18952;52.516;13.460;2023-12-22T04:13:39;3.70;70.00
32502;DHT22;18952;52.516;13.460;2023-12-22T04:16:07;3.70;70.20
32502;DHT22;18952;52.516;13.460;2023-12-22T04:18:34;3.60;70.40
32502;DHT22;18952;52.516;13.460;2023-12-22T04:21:01;3.60;71.60
32502;DHT22;18952;52.516;13.460;2023-12-22T04:23:29;3.60;72.10
32502;DHT22;18952;52.516;13.460;2023-12-22T04:25:56;3.40;72.70
32502;DHT22;18952;52.516;13.460;2023-12-22T04:28:23;3.40;73.10
32502;DHT22;18952;52.516;13.460;2023-12-22T04:30:50;3.50;73.50
32502;DHT22;18952;52.516;13.460;2023-12-22T04:33:18;3.40;73.20
32502;DHT22;18952;52.516;13.460;2023-12-22T04:35:45;3.30;73.90
32502;DHT22;18952;52.516;13.460;2023-12-22T04:38:12;3.20;73.70
32502;DHT22;18952;52.516;13.460;2023-12-22T04:40:41;3.20;73.60
32502;DHT22;18952;52.516;13.460;2023-12-22T04:43:09;3.30;73.40
32502;DHT22;18952;52.516;13.460;2023-12-22T04:45:36;3.40;73.50
32502;DHT22;18952;52.516;13.460;2023-12-22T04:48:03;3.20;73.90
32502;DHT22;18952;52.516;13.460;2023-12-22T04:50:31;3.30;74.00
32502;DHT22;18952;52.516;13.460;2023-12-22T04:52:58;3.30;73.90
32502;DHT22;18952;52.516;13.460;2023-12-22T04:55:25;3.30;73.90
32502;DHT22;18952;52.516;13.460;2023-12-22T04:57:52;3.30;73.70
32502;DHT22;18952;52.516;13.460;2023-12-22T05:00:19;3.30;74.20
32502;DHT22;18952;52.516;13.460;2023-12-22T05:02:45;3.40;74.50
32502;DHT22;18952;52.516;13.460;2023-12-22T05:05:12;3.40;74.80
32502;DHT22;18952;52.516;13.460;2023-12-22T05:07:41;3.30;75.60
32502;DHT22;18952;52.516;13.460;2023-12-22T05:10:08;3.30;76.40
32502;DHT22;18952;52.516;13.460;2023-12-22T05:12:36;3.20;77.20
32502;DHT22;18952;52.516;13.460;2023-12-22T05:15:03;2.90;78.80
32502;DHT22;18952;52.516;13.460;2023-12-22T05:17:30;2.70;79.70
32502;DHT22;18952;52.516;13.460;2023-12-22T05:19:57;2.60;80.80
32502;DHT22;18952;52.516;13.460;2023-12-22T05:22:25;2.60;80.90
32502;DHT22;18952;52.516;13.460;2023-12-22T05:24:52;2.60;80.70
32502;DHT22;18952;52.516;13.460;2023-12-22T05:27:20;2.50;80.70
32502;DHT22;18952;52.516;13.460;2023-12-22T05:29:47;2.40;81.00
32502;DHT22;18952;52.516;13.460;2023-12-22T05:32:14;2.40;80.80
32502;DHT22;18952;52.516;13.460;2023-12-22T05:34:40;2.50;80.60
32502;DHT22;18952;52.516;13.460;2023-12-22T05:37:07;2.50;79.80
32502;DHT22;18952;52.516;13.460;2023-12-22T05:39:34;2.50;80.40
32502;DHT22;18952;52.516;13.460;2023-12-22T05:42:01;2.60;79.70
32502;DHT22;18952;52.516;13.460;2023-12-22T05:44:28;2.50;79.80
32502;DHT22;18952;52.516;13.460;2023-12-22T05:46:56;2.50;80.00
32502;DHT22;18952;52.516;13.460;2023-12-22T05:49:23;2.50;79.80
32502;DHT22;18952;52.516;13.460;2023-12-22T05:51:50;2.50;79.60
32502;DHT22;18952;52.516;13.460;2023-12-22T05:54:17;2.50;79.30
32502;DHT22;18952;52.516;13.460;2023-12-22T05:56:45;2.50;79.40
32502;DHT22;18952;52.516;13.460;2023-12-22T05:59:12;2.50;78.80
32502;DHT22;18952;52.516;13.460;2023-12-22T06:01:40;2.50;78.90
32502;DHT22;18952;52.516;13.460;2023-12-22T06:04:07;2.60;78.80
32502;DHT22;18952;52.516;13.460;2023-12-22T06:06:36;2.60;77.80
32502;DHT22;18952;52.516;13.460;2023-12-22T06:09:04;2.60;77.30
32502;DHT22;18952;52.516;13.460;2023-12-22T06:11:31;2.60;76.90
32502;DHT22;18952;52.516;13.460;2023-12-22T06:13:59;2.60;76.10
32502;DHT22;18952;52.516;13.460;2023-12-22T06:16:25;2.60;75.60
32502;DHT22;18952;52.516;13.460;2023-12-22T06:18:53;2.80;75.00
32502;DHT22;18952;52.516;13.460;2023-12-22T06:21:20;2.70;74.80
32502;DHT22;18952;52.516;13.460;2023-12-22T06:23:48;2.80;74.50
32502;DHT22;18952;52.516;13.460;2023-12-22T06:26:15;2.70;73.50
32502;DHT22;18952;52.516;13.460;2023-12-22T06:28:43;2.80;73.00
32502;DHT22;18952;52.516;13.460;2023-12-22T06:31:18;2.70;73.10
32502;DHT22;18952;52.516;13.460;2023-12-22T06:33:49;2.70;72.90
32502;DHT22;18952;52.516;13.460;2023-12-22T06:36:24;2.70;72.70
32502;DHT22;18952;52.516;13.460;2023-12-22T06:38:52;2.70;72.50
32502;DHT22;18952;52.516;13.460;2023-12-22T06:41:20;2.70;72.10
32502;DHT22;18952;52.516;13.460;2023-12-22T06:43:53;2.70;72.40
32502;DHT22;18952;52.516;13.460;2023-12-22T06:46:23;2.70;72.80
32502;DHT22;18952;52.516;13.460;2023-12-22T06:48:50;2.70;72.60
32502;DHT22;18952;52.516;13.460;2023-12-22T06:51:22;2.80;73.60
32502;DHT22;18952;52.516;13.460;2023-12-22T06:53:58;2.80;75.60
32502;DHT22;18952;52.516;13.460;2023-12-22T06:56:26;2.60;77.20
32502;DHT22;18952;52.516;13.460;2023-12-22T06:58:55;2.40;78.30
32502;DHT22;18952;52.516;13.460;2023-12-22T07:01:34;2.30;79.50
32502;DHT22;18952;52.516;13.460;2023-12-22T07:04:04;2.30;80.20
32502;DHT22;18952;52.516;13.460;2023-12-22T07:06:33;2.10;81.20
32502;DHT22;18952;52.516;13.460;2023-12-22T07:11:51;2.20;81.70
32502;DHT22;18952;52.516;13.460;2023-12-22T07:14:18;2.20;81.20
32502;DHT22;18952;52.516;13.460;2023-12-22T07:16:45;2.10;81.80
32502;DHT22;18952;52.516;13.460;2023-12-22T07:19:12;2.10;81.50
32502;DHT22;18952;52.516;13.460;2023-12-22T07:21:40;2.10;81.20
32502;DHT22;18952;52.516;13.460;2023-12-22T07:24:11;2.10;81.60
32502;DHT22;18952;52.516;13.460;2023-12-22T07:26:41;2.20;80.90
32502;DHT22;18952;52.516;13.460;2023-12-22T07:29:08;2.20;81.20
32502;DHT22;18952;52.516;13.460;2023-12-22T07:31:35;2.10;81.20
32502;DHT22;18952;52.516;13.460;2023-12-22T07:34:04;2.20;80.90
32502;DHT22;18952;52.516;13.460;2023-12-22T07:36:37;2.20;80.30
32502;DHT22;18952;52.516;13.460;2023-12-22T07:39:16;2.20;80.00
32502;DHT22;18952;52.516;13.460;2023-12-22T07:41:46;2.30;79.40
32502;DHT22;18952;52.516;13.460;2023-12-22T07:44:13;2.30;78.80
32502;DHT22;18952;52.516;13.460;2023-12-22T07:46:41;2.30;77.30
32502;DHT22;18952;52.516;13.460;2023-12-22T07:49:09;2.40;77.60
32502;DHT22;18952;52.516;13.460;2023-12-22T07:51:37;2.40;76.70
32502;DHT22;18952;52.516;13.460;2023-12-22T07:54:07;2.40;76.70
32502;DHT22;18952;52.516;13.460;2023-12-22T07:56:34;2.50;77.20
32502;DHT22;18952;52.516;13.460;2023-12-22T07:59:02;2.60;76.20
32502;DHT22;18952;52.516;13.460;2023-12-22T08:01:48;2.60;76.20
32502;DHT22;18952;52.516;13.460;2023-12-22T08:04:15;2.50;76.00
32502;DHT22;18952;52.516;13.460;2023-12-22T08:06:42;2.60;75.40
32502;DHT22;18952;52.516;13.460;2023-12-22T08:09:09;2.70;75.10
32502;DHT22;18952;52.516;13.460;2023-12-22T08:11:37;2.70;74.90
32502;DHT22;18952;52.516;13.460;2023-12-22T08:14:04;2.70;74.80
32502;DHT22;18952;52.516;13.460;2023-12-22T08:16:32;2.60;74.10
32502;DHT22;18952;52.516;13.460;2023-12-22T08:18:59;2.60;73.80
32502;DHT22;18952;52.516;13.460;2023-12-22T08:21:26;2.70;73.50
32502;DHT22;18952;52.516;13.460;2023-12-22T08:24:09;2.60;73.20
32502;DHT22;18952;52.516;13.460;2023-12-22T08:26:39;2.70;72.70
32502;DHT22;18952;52.516;13.460;2023-12-22T08:29:06;2.60;73.50
32502;DHT22;18952;52.516;13.460;2023-12-22T08:31:33;2.60;73.00
32502;DHT22;18952;52.516;13.460;2023-12-22T08:34:02;2.70;73.10
32502;DHT22;18952;52.516;13.460;2023-12-22T08:36:28;2.50;73.20
32502;DHT22;18952;52.516;13.460;2023-12-22T08:38:55;2.60;73.30
32502;DHT22;18952;52.516;13.460;2023-12-22T08:41:24;2.50;74.10
32502;DHT22;18952;52.516;13.460;2023-12-22T08:43:51;2.60;73.40
32502;DHT22;18952;52.516;13.460;2023-12-22T08:46:18;2.60;73.80
32502;DHT22;18952;52.516;13.460;2023-12-22T08:48:50;2.50;72.80
32502;DHT22;18952;52.516;13.460;2023-12-22T08:51:17;2.50;72.90
32502;DHT22;18952;52.516;13.460;2023-12-22T08:53:45;2.50;73.20
32502;DHT22;18952;52.516;13.460;2023-12-22T08:56:14;2.50;73.50
32502;DHT22;18952;52.516;13.460;2023-12-22T08:58:41;2.50;72.80
32502;DHT22;18952;52.516;13.460;2023-12-22T09:01:18;2.60;72.40
32502;DHT22;18952;52.516;13.460;2023-12-22T09:03:46;2.50;72.30
32502;DHT22;18952;52.516;13.460;2023-12-22T09:06:18;2.50;71.40
32502;DHT22;18952;52.516;13.460;2023-12-22T09:08:45;2.50;71.40
32502;DHT22;18952;52.516;13.460;2023-12-22T09:11:17;2.50;71.60
32502;DHT22;18952;52.516;13.460;2023-12-22T09:13:45;2.60;71.30
32502;DHT22;18952;52.516;13.460;2023-12-22T09:16:12;2.60;71.60
32502;DHT22;18952;52.516;13.460;2023-12-22T09:18:39;2.70;71.30
32502;DHT22;18952;52.516;13.460;2023-12-22T09:21:07;2.70;71.20
32502;DHT22;18952;52.516;13.460;2023-12-22T09:23:39;2.70;70.40
32502;DHT22;18952;52.516;13.460;2023-12-22T09:26:10;2.80;70.20
32502;DHT22;18952;52.516;13.460;2023-12-22T09:28:41;2.80;70.40
32502;DHT22;18952;52.516;13.460;2023-12-22T09:31:08;2.90;69.80
32502;DHT22;18952;52.516;13.460;2023-12-22T09:33:35;3.00;69.20
32502;DHT22;18952;52.516;13.460;2023-12-22T09:36:04;3.00;69.30
32502;DHT22;18952;52.516;13.460;2023-12-22T09:38:31;3.10;68.50
32502;DHT22;18952;52.516;13.460;2023-12-22T09:40:58;3.10;68.50
32502;DHT22;18952;52.516;13.460;2023-12-22T09:43:28;3.20;68.00
32502;DHT22;18952;52.516;13.460;2023-12-22T09:45:56;3.30;67.10
32502;DHT22;18952;52.516;13.460;2023-12-22T09:48:25;3.30;66.60
32502;DHT22;18952;52.516;13.460;2023-12-22T09:50:54;3.30;66.10
32502;DHT22;18952;52.516;13.460;2023-12-22T09:53:21;3.30;65.90
32502;DHT22;18952;52.516;13.460;2023-12-22T09:55:51;3.30;65.90
32502;DHT22;18952;52.516;13.460;2023-12-22T09:58:19;3.40;65.70
32502;DHT22;18952;52.516;13.460;2023-12-22T10:00:47;3.40;65.60
32502;DHT22;18952;52.516;13.460;2023-12-22T10:03:16;3.30;66.10
32502;DHT22;18952;52.516;13.460;2023-12-22T10:05:53;3.40;65.70
32502;DHT22;18952;52.516;13.460;2023-12-22T10:08:21;3.30;66.10
32502;DHT22;18952;52.516;13.460;2023-12-22T10:10:50;3.30;66.10
32502;DHT22;18952;52.516;13.460;2023-12-22T10:13:18;3.50;65.80
32502;DHT22;18952;52.516;13.460;2023-12-22T10:15:46;3.60;65.30
32502;DHT22;18952;52.516;13.460;2023-12-22T10:18:13;3.60;65.50
32502;DHT22;18952;52.516;13.460;2023-12-22T10:20:42;3.60;65.30
32502;DHT22;18952;52.516;13.460;2023-12-22T10:23:10;3.60;65.40
32502;DHT22;18952;52.516;13.460;2023-12-22T10:25:40;3.50;64.50
32502;DHT22;18952;52.516;13.460;2023-12-22T10:28:11;3.60;64.90
32502;DHT22;18952;52.516;13.460;2023-12-22T10:30:40;3.70;64.40
32502;DHT22;18952;52.516;13.460;2023-12-22T10:33:14;3.80;63.40
32502;DHT22;18952;52.516;13.460;2023-12-22T10:35:42;3.70;63.30
32502;DHT22;18952;52.516;13.460;2023-12-22T10:38:09;3.70;63.30
32502;DHT22;18952;52.516;13.460;2023-12-22T10:40:39;3.70;63.20
32502;DHT22;18952;52.516;13.460;2023-12-22T10:43:06;3.80;63.20
32502;DHT22;18952;52.516;13.460;2023-12-22T10:45:33;3.80;62.80
32502;DHT22;18952;52.516;13.460;2023-12-22T10:48:00;3.80;62.40
32502;DHT22;18952;52.516;13.460;2023-12-22T10:50:30;3.80;62.50
32502;DHT22;18952;52.516;13.460;2023-12-22T10:53:00;3.80;62.40
32502;DHT22;18952;52.516;13.460;2023-12-22T10:55:28;3.80;62.80
32502;DHT22;18952;52.516;13.460;2023-12-22T10:57:56;3.80;62.60
32502;DHT22;18952;52.516;13.460;2023-12-22T11:00:24;3.90;62.60
32502;DHT22;18952;52.516;13.460;2023-12-22T11:03:01;3.90;62.60
32502;DHT22;18952;52.516;13.460;2023-12-22T11:05:33;4.00;62.80
32502;DHT22;18952;52.516;13.460;2023-12-22T11:08:00;4.00;62.40
32502;DHT22;18952;52.516;13.460;2023-12-22T11:10:31;4.10;62.20
32502;DHT22;18952;52.516;13.460;2023-12-22T11:12:59;4.00;61.60
32502;DHT22;18952;52.516;13.460;2023-12-22T11:15:27;4.00;61.20
32502;DHT22;18952;52.516;13.460;2023-12-22T11:17:56;3.90;61.50
32502;DHT22;18952;52.516;13.460;2023-12-22T11:20:25;3.90;61.30
32502;DHT22;18952;52.516;13.460;2023-12-22T11:22:55;3.90;60.70
32502;DHT22;18952;52.516;13.460;2023-12-22T11:25:23;3.90;61.00
32502;DHT22;18952;52.516;13.460;2023-12-22T11:27:52;3.90;60.60
32502;DHT22;18952;52.516;13.460;2023-12-22T11:30:20;3.90;60.60
32502;DHT22;18952;52.516;13.460;2023-12-22T11:32:50;3.90;61.00
32502;DHT22;18952;52.516;13.460;2023-12-22T11:35:21;3.80;60.90
32502;DHT22;18952;52.516;13.460;2023-12-22T11:38:00;4.00;61.00
32502;DHT22;18952;52.516;13.460;2023-12-22T11:40:28;3.90;60.90
32502;DHT22;18952;52.516;13.460;2023-12-22T11:42:55;4.00;60.30
32502;DHT22;18952;52.516;13.460;2023-12-22T11:45:23;4.00;60.60
32502;DHT22;18952;52.516;13.460;2023-12-22T11:47:50;4.10;59.90
32502;DHT22;18952;52.516;13.460;2023-12-22T11:50:32;4.10;59.60
32502;DHT22;18952;52.516;13.460;2023-12-22T11:53:19;4.10;59.60
32502;DHT22;18952;52.516;13.460;2023-12-22T11:56:05;4.20;59.30
32502;DHT22;18952;52.516;13.460;2023-12-22T11:58:51;4.20;59.10
32502;DHT22;18952;52.516;13.460;2023-12-22T12:01:22;4.20;59.30
32502;DHT22;18952;52.516;13.460;2023-12-22T12:03:53;4.10;59.90
32502;DHT22;18952;52.516;13.460;2023-12-22T12:08:58;4.20;60.30
32502;DHT22;18952;52.516;13.460;2023-12-22T12:14:41;4.30;60.80
32502;DHT22;18952;52.516;13.460;2023-12-22T12:17:10;4.40;60.90
32502;DHT22;18952;52.516;13.460;2023-12-22T12:19:41;4.40;60.80
32502;DHT22;18952;52.516;13.460;2023-12-22T12:22:11;4.30;60.00
32502;DHT22;18952;52.516;13.460;2023-12-22T12:24:42;4.30;60.70
32502;DHT22;18952;52.516;13.460;2023-12-22T12:27:10;4.30;60.60
32502;DHT22;18952;52.516;13.460;2023-12-22T12:29:39;4.20;60.40
32502;DHT22;18952;52.516;13.460;2023-12-22T12:32:07;4.20;61.10
32502;DHT22;18952;52.516;13.460;2023-12-22T12:34:37;4.30;60.50
32502;DHT22;18952;52.516;13.460;2023-12-22T12:37:05;4.40;60.60
32502;DHT22;18952;52.516;13.460;2023-12-22T12:39:34;4.30;61.20
32502;DHT22;18952;52.516;13.460;2023-12-22T12:42:01;4.30;61.00
32502;DHT22;18952;52.516;13.460;2023-12-22T12:44:30;4.30;60.90
32502;DHT22;18952;52.516;13.460;2023-12-22T12:46:57;4.30;61.30
32502;DHT22;18952;52.516;13.460;2023-12-22T12:49:26;4.30;61.30
32502;DHT22;18952;52.516;13.460;2023-12-22T12:51:53;4.40;61.10
32502;DHT22;18952;52.516;13.460;2023-12-22T12:54:21;4.30;60.60
32502;DHT22;18952;52.516;13.460;2023-12-22T12:56:48;4.30;60.80
32502;DHT22;18952;52.516;13.460;2023-12-22T12:59:16;4.20;61.00
32502;DHT22;18952;52.516;13.460;2023-12-22T13:01:48;4.20;61.40
32502;DHT22;18952;52.516;13.460;2023-12-22T13:04:16;4.20;61.00
32502;DHT22;18952;52.516;13.460;2023-12-22T13:06:50;4.20;61.10
32502;DHT22;18952;52.516;13.460;2023-12-22T13:09:18;4.30;61.30
32502;DHT22;18952;52.516;13.460;2023-12-22T13:11:46;4.30;61.50
32502;DHT22;18952;52.516;13.460;2023-12-22T13:14:24;4.30;61.50
32502;DHT22;18952;52.516;13.460;2023-12-22T13:16:55;4.30;61.90
32502;DHT22;18952;52.516;13.460;2023-12-22T13:19:26;4.30;62.30
32502;DHT22;18952;52.516;13.460;2023-12-22T13:21:55;4.40;62.50
32502;DHT22;18952;52.516;13.460;2023-12-22T13:24:23;4.30;62.70
32502;DHT22;18952;52.516;13.460;2023-12-22T13:27:00;4.40;62.60
32502;DHT22;18952;52.516;13.460;2023-12-22T13:29:27;4.30;62.00
32502;DHT22;18952;52.516;13.460;2023-12-22T13:31:54;4.30;62.00
32502;DHT22;18952;52.516;13.460;2023-12-22T13:34:22;4.30;62.00
32502;DHT22;18952;52.516;13.460;2023-12-22T13:36:49;4.40;61.80
32502;DHT22;18952;52.516;13.460;2023-12-22T13:39:16;4.30;61.40
32502;DHT22;18952;52.516;13.460;2023-12-22T13:41:43;4.30;61.30
32502;DHT22;18952;52.516;13.460;2023-12-22T13:44:14;4.30;60.80
32502;DHT22;18952;52.516;13.460;2023-12-22T13:46:42;4.30;60.60
32502;DHT22;18952;52.516;13.460;2023-12-22T13:49:10;4.30;60.30
32502;DHT22;18952;52.516;13.460;2023-12-22T13:51:44;4.30;60.80
32502;DHT22;18952;52.516;13.460;2023-12-22T13:54:12;4.30;60.50
32502;DHT22;18952;52.516;13.460;2023-12-22T13:56:39;4.40;60.50
32502;DHT22;18952;52.516;13.460;2023-12-22T13:59:08;4.30;60.60
32502;DHT22;18952;52.516;13.460;2023-12-22T14:01:35;4.40;60.90
32502;DHT22;18952;52.516;13.460;2023-12-22T14:04:04;4.50;60.50
32502;DHT22;18952;52.516;13.460;2023-12-22T14:06:31;4.40;60.60
32502;DHT22;18952;52.516;13.460;2023-12-22T14:08:58;4.40;60.30
32502;DHT22;18952;52.516;13.460;2023-12-22T14:11:24;4.30;61.00
32502;DHT22;18952;52.516;13.460;2023-12-22T14:13:55;4.30;60.80
32502;DHT22;18952;52.516;13.460;2023-12-22T14:16:21;4.30;60.90
32502;DHT22;18952;52.516;13.460;2023-12-22T14:18:48;4.30;60.80
32502;DHT22;18952;52.516;13.460;2023-12-22T14:21:15;4.30;61.10
32502;DHT22;18952;52.516;13.460;2023-12-22T14:23:42;4.30;61.50
32502;DHT22;18952;52.516;13.460;2023-12-22T14:26:09;4.30;61.50
32502;DHT22;18952;52.516;13.460;2023-12-22T14:28:36;4.20;62.10
32502;DHT22;18952;52.516;13.460;2023-12-22T14:31:04;4.10;63.10
32502;DHT22;18952;52.516;13.460;2023-12-22T14:33:31;4.00;63.70
32502;DHT22;18952;52.516;13.460;2023-12-22T14:35:59;4.10;63.80
32502;DHT22;18952;52.516;13.460;2023-12-22T14:38:26;3.90;64.90
32502;DHT22;18952;52.516;13.460;2023-12-22T14:40:55;3.90;65.70
32502;DHT22;18952;52.516;13.460;2023-12-22T14:43:21;3.80;66.00
32502;DHT22;18952;52.516;13.460;2023-12-22T14:45:48;3.80;66.40
32502;DHT22;18952;52.516;13.460;2023-12-22T14:48:15;3.80;66.30
32502;DHT22;18952;52.516;13.460;2023-12-22T14:50:42;3.70;66.20
32502;DHT22;18952;52.516;13.460;2023-12-22T14:53:09;3.60;66.40
32502;DHT22;18952;52.516;13.460;2023-12-22T14:55:39;3.50;65.90
32502;DHT22;18952;52.516;13.460;2023-12-22T14:58:06;3.50;66.00
32502;DHT22;18952;52.516;13.460;2023-12-22T15:00:33;3.50;65.80
32502;DHT22;18952;52.516;13.460;2023-12-22T15:03:00;3.50;65.30
32502;DHT22;18952;52.516;13.460;2023-12-22T15:05:27;3.50;64.80
32502;DHT22;18952;52.516;13.460;2023-12-22T15:07:55;3.50;64.90
32502;DHT22;18952;52.516;13.460;2023-12-22T15:10:23;3.40;64.90
32502;DHT22;18952;52.516;13.460;2023-12-22T15:12:50;3.40;64.80
32502;DHT22;18952;52.516;13.460;2023-12-22T15:15:18;3.50;64.60
32502;DHT22;18952;52.516;13.460;2023-12-22T15:17:45;3.50;64.40
32502;DHT22;18952;52.516;13.460;2023-12-22T15:20:12;3.40;64.70
32502;DHT22;18952;52.516;13.460;2023-12-22T15:22:40;3.40;64.80
32502;DHT22;18952;52.516;13.460;2023-12-22T15:25:07;3.40;65.20
32502;DHT22;18952;52.516;13.460;2023-12-22T15:27:35;3.30;65.50
32502;DHT22;18952;52.516;13.460;2023-12-22T15:30:03;3.40;65.70
32502;DHT22;18952;52.516;13.460;2023-12-22T15:32:30;3.50;65.70
32502;DHT22;18952;52.516;13.460;2023-12-22T15:34:57;3.50;66.20
32502;DHT22;18952;52.516;13.460;2023-12-22T15:37:24;3.40;66.20
32502;DHT22;18952;52.516;13.460;2023-12-22T15:39:51;3.40;66.70
32502;DHT22;18952;52.516;13.460;2023-12-22T15:42:19;3.40;67.00
32502;DHT22;18952;52.516;13.460;2023-12-22T15:44:46;3.40;67.00
32502;DHT22;18952;52.516;13.460;2023-12-22T15:47:13;3.40;67.00
32502;DHT22;18952;52.516;13.460;2023-12-22T15:49:40;3.40;67.30
32502;DHT22;18952;52.516;13.460;2023-12-22T15:52:08;3.40;67.60
32502;DHT22;18952;52.516;13.460;2023-12-22T15:54:37;3.50;67.40